Decoded Metar for ULOO (PSKOV in RUSSIA) (IATA:PKV) | Meteo·Mobile Aviation Weather
aviador You're here:

ULOO Decoded Metar

PSKOV in RUSSIA
Report Time2018-12-15 13:00:00
UTC Time2018-12-15 13:32:34
Flight Rules ifr IFR
Wind040° at 4 kt
W.Decomp.*RWY 01: 3.7 kt HW 1.5 kt RCW
W.Rank040° ranks 35
Current wind is below 040° avg. (5.3)
VisibilityN/A
Phenomena:N/A
Clouds:Overcast 006 Hf
Expected CloudBase > 400 ft AGL from Temp-Dew spread
Ceiling600 ft
Temp-6°C (ISA -21)
Dew Point-7°C (93% RH)
AAT-10.2°C
QNH1037 hPa
Density Alt-3,176 ft
Elevation154 ft
Report Wrong Elevation
Raw Report
ULOO 151300Z 04002MPS 010V080 P5000 OVC006 M06/M07 Q1037
R19/090060 NOSIG RMK OBST OBSC QFE773=

Extra information for ULOO:More info

Metar Taf Metar & Taf Last 4 Metars F.Rules Stats Wind Profile Meteogram Temp Stats Airport Information Weather charts Add Link Nearby VenuesMetar ALERT Operation Metar Decoded Social comments